Time;durP1;ratioP1;P1;durP2;ratioP2;P2;SDS_P1;SDS_P2;PMS_P1;PMS_P2;Temp;Humidity;BMP_temperature;BMP_pressure;BME280_temperature;BME280_humidity;BME280_pressure;Samples;Min_cycle;Max_cycle;Signal;HPM_P1;HPM_P2
2021/12/24 00:00:28;;;;;;;2.63;2.17;;;10.00;99.90;;;;;;5032305;28;20891;-78
2021/12/24 00:02:56;;;;;;;5.60;2.60;;;9.90;99.90;;;;;;5032112;28;20424;-78
2021/12/24 00:05:22;;;;;;;2.73;1.87;;;10.00;99.90;;;;;;5032559;28;20175;-77
2021/12/24 00:07:48;;;;;;;2.50;2.27;;;9.90;99.90;;;;;;5030095;28;20471;-78
2021/12/24 00:10:14;;;;;;;2.07;1.87;;;10.10;99.90;;;;;;5030760;28;20482;-78
2021/12/24 00:12:46;;;;;;;4.67;2.27;;;10.10;99.90;;;;;;5014191;28;20438;-78
2021/12/24 00:15:33;;;;;;;4.40;2.17;;;10.10;99.90;;;;;;5031551;28;20495;-79
2021/12/24 00:18:09;;;;;;;2.53;1.80;;;10.20;99.90;;;;;;5031715;28;20994;-78
2021/12/24 00:35:08;;;;;;;4.50;2.37;;;10.10;99.90;;;;;;5029921;28;20545;-78
2021/12/24 00:36:42;;;;;;;12.77;2.30;;;10.20;99.90;;;;;;5030531;28;20436;-77
2021/12/24 00:39:07;;;;;;;3.00;1.80;;;10.20;99.90;;;;;;5030289;28;20476;-78
2021/12/24 00:41:33;;;;;;;3.80;2.40;;;10.20;99.90;;;;;;5030108;28;20186;-77
2021/12/24 00:43:59;;;;;;;3.97;1.93;;;10.30;99.90;;;;;;5012922;28;20199;-77
2021/12/24 00:46:25;;;;;;;3.83;2.40;;;10.20;99.90;;;;;;5029466;28;20184;-78
2021/12/24 00:48:53;;;;;;;2.40;1.87;;;10.20;99.90;;;;;;5029804;28;20320;-77
2021/12/24 00:56:13;;;;;;;2.20;2.00;;;10.50;99.90;;;;;;5031045;28;20609;-78
2021/12/24 00:58:40;;;;;;;2.03;1.73;;;10.50;99.90;;;;;;5032713;28;20246;-77
2021/12/24 01:01:07;;;;;;;2.53;1.90;;;10.50;99.90;;;;;;5031205;28;20455;-77
2021/12/24 01:03:33;;;;;;;5.87;2.27;;;10.60;99.90;;;;;;5031627;28;20506;-77
2021/12/24 01:05:59;;;;;;;3.33;1.27;;;10.60;99.90;;;;;;5031838;28;20518;-78
2021/12/24 01:08:25;;;;;;;3.23;1.60;;;10.70;99.90;;;;;;5029741;28;20761;-78
2021/12/24 01:10:56;;;;;;;2.80;1.73;;;10.70;99.90;;;;;;5031025;28;20195;-77
2021/12/24 01:13:22;;;;;;;1.83;1.17;;;10.60;99.90;;;;;;5032493;28;20795;-77
2021/12/24 01:16:16;;;;;;;2.03;1.60;;;10.60;99.90;;;;;;5032815;28;20418;-77
2021/12/24 01:24:07;;;;;;;3.63;1.93;;;10.70;99.90;;;;;;5032548;28;20421;-77
2021/12/24 01:40:06;;;;;;;1.80;1.40;;;10.80;99.90;;;;;;5030800;28;20445;-79
2021/12/24 01:42:47;;;;;;;5.47;1.87;;;10.80;99.90;;;;;;5013968;28;20425;-78
2021/12/24 01:45:26;;;;;;;1.80;1.40;;;11.00;99.90;;;;;;5017564;28;21287;-78
2021/12/24 01:47:55;;;;;;;4.43;1.37;;;10.90;99.90;;;;;;5016147;28;20552;-78
2021/12/24 01:50:22;;;;;;;3.93;1.50;;;10.70;99.90;;;;;;5030877;28;20447;-79
2021/12/24 01:52:50;;;;;;;2.33;1.60;;;10.70;99.90;;;;;;5029107;28;20520;-78
2021/12/24 01:55:17;;;;;;;3.80;1.73;;;10.70;99.90;;;;;;5029268;28;20766;-79
2021/12/24 01:57:43;;;;;;;1.50;1.40;;;10.70;99.90;;;;;;5028992;28;20477;-78
2021/12/24 02:00:13;;;;;;;1.80;1.70;;;10.60;99.90;;;;;;5029057;28;20421;-79
2021/12/24 02:02:39;;;;;;;3.10;1.23;;;10.70;99.90;;;;;;5013041;28;20461;-78
2021/12/24 02:05:05;;;;;;;2.87;1.43;;;10.60;99.90;;;;;;5029240;28;20438;-79
2021/12/24 02:07:31;;;;;;;10.07;2.53;;;10.60;99.90;;;;;;5029709;28;20452;-78
2021/12/24 02:09:56;;;;;;;2.70;1.17;;;10.70;99.90;;;;;;5013476;28;20433;-79
2021/12/24 02:12:24;;;;;;;2.80;1.47;;;10.70;99.90;;;;;;5031447;28;20187;-79
2021/12/24 02:14:54;;;;;;;17.73;2.40;;;10.70;99.90;;;;;;5029959;28;20177;-78
2021/12/24 02:28:27;;;;;;;1.50;1.40;;;10.60;99.90;;;;;;5034587;28;20444;-78
2021/12/24 02:30:53;;;;;;;2.50;1.67;;;10.60;99.90;;;;;;5034095;28;20428;-78
2021/12/24 02:33:19;;;;;;;2.50;1.47;;;10.60;99.90;;;;;;5034094;28;20422;-78
2021/12/24 02:35:45;;;;;;;2.70;1.93;;;10.50;99.90;;;;;;5034973;28;20449;-78
2021/12/24 02:38:11;;;;;;;1.30;1.20;;;10.50;99.90;;;;;;5032216;28;20227;-78
2021/12/24 02:40:37;;;;;;;1.57;1.30;;;10.50;99.90;;;;;;5033427;28;20182;-78
2021/12/24 02:43:04;;;;;;;1.77;1.43;;;10.40;99.90;;;;;;5034507;28;20647;-78
2021/12/24 02:45:31;;;;;;;2.50;1.13;;;10.40;99.90;;;;;;5033749;28;20418;-78
2021/12/24 02:56:06;;;;;;;3.83;1.63;;;10.50;99.90;;;;;;5032842;28;20423;-80
2021/12/24 02:58:43;;;;;;;1.63;1.50;;;10.40;99.90;;;;;;5031759;28;20468;-79
2021/12/24 03:01:10;;;;;;;1.67;1.57;;;10.40;99.90;;;;;;5014861;28;20418;-79
2021/12/24 03:03:36;;;;;;;3.10;1.70;;;10.40;99.90;;;;;;5033632;28;20522;-78
2021/12/24 03:06:02;;;;;;;4.80;1.70;;;10.40;99.90;;;;;;5033253;28;20420;-77
2021/12/24 03:08:28;;;;;;;1.43;1.20;;;10.40;99.90;;;;;;5014329;28;20211;-77
2021/12/24 03:10:55;;;;;;;1.57;1.47;;;10.40;99.90;;;;;;5032469;28;20519;-78
2021/12/24 03:13:23;;;;;;;2.63;2.30;;;10.40;99.90;;;;;;5035529;28;20211;-78
2021/12/24 03:15:51;;;;;;;6.33;1.80;;;10.40;99.90;;;;;;5033154;28;20791;-78
2021/12/24 03:18:23;;;;;;;1.53;1.43;;;10.40;99.90;;;;;;5032563;28;20478;-77
2021/12/24 03:20:57;;;;;;;3.70;2.03;;;10.40;99.90;;;;;;5031502;28;20416;-77
2021/12/24 03:23:34;;;;;;;2.93;1.97;;;10.40;99.90;;;;;;5031479;28;21083;-78
2021/12/24 03:26:00;;;;;;;2.30;1.53;;;10.30;99.90;;;;;;5034905;28;20840;-77
2021/12/24 03:28:25;;;;;;;1.63;1.53;;;10.30;99.90;;;;;;5034261;28;20476;-78
2021/12/24 03:30:51;;;;;;;5.70;1.80;;;10.30;99.90;;;;;;5036105;28;20656;-77
2021/12/24 03:33:17;;;;;;;1.77;1.50;;;10.20;99.90;;;;;;5033465;28;20198;-77
2021/12/24 03:35:42;;;;;;;2.30;1.60;;;10.20;99.90;;;;;;5030783;28;20197;-77
2021/12/24 03:38:08;;;;;;;2.33;1.57;;;10.20;99.90;;;;;;4996347;28;20214;-77
2021/12/24 03:40:34;;;;;;;2.70;1.80;;;10.20;99.90;;;;;;5030418;28;20271;-77
2021/12/24 03:42:59;;;;;;;1.57;1.37;;;10.20;99.90;;;;;;5030016;28;20729;-78
2021/12/24 03:45:36;;;;;;;4.23;2.10;;;10.20;99.90;;;;;;5013455;28;20191;-78
2021/12/24 03:48:13;;;;;;;2.03;1.47;;;10.10;99.90;;;;;;5014723;28;20266;-78
2021/12/24 03:51:17;;;;;;;1.50;1.10;;;10.10;99.90;;;;;;5030151;28;20453;-74
2021/12/24 03:56:15;;;;;;;2.77;2.07;;;10.00;99.90;;;;;;5011678;28;20435;-76
2021/12/24 03:58:41;;;;;;;2.30;1.43;;;10.00;99.90;;;;;;5029724;28;20470;-78
2021/12/24 04:01:07;;;;;;;6.20;2.27;;;9.90;99.90;;;;;;5028868;28;20415;-78
2021/12/24 04:03:33;;;;;;;3.47;1.43;;;10.00;99.90;;;;;;5012462;28;20862;-79
2021/12/24 04:05:58;;;;;;;2.30;1.67;;;9.90;99.90;;;;;;5012387;28;20533;-79
2021/12/24 04:08:24;;;;;;;2.30;1.53;;;9.90;99.90;;;;;;5028715;28;20678;-78
2021/12/24 04:10:50;;;;;;;1.60;1.50;;;9.90;99.90;;;;;;5029550;28;20247;-78
2021/12/24 04:13:16;;;;;;;2.90;1.93;;;9.90;99.90;;;;;;5029871;28;20193;-78
2021/12/24 04:15:42;;;;;;;2.90;2.03;;;9.90;99.90;;;;;;5029310;28;20177;-78
2021/12/24 04:18:59;;;;;;;2.00;1.67;;;9.90;99.90;;;;;;5028874;28;20502;-77
2021/12/24 04:26:28;;;;;;;2.10;1.70;;;9.70;99.90;;;;;;5030445;28;20884;-77
2021/12/24 04:28:54;;;;;;;3.47;1.80;;;9.80;99.90;;;;;;5029366;28;20481;-77
2021/12/24 04:31:26;;;;;;;1.60;1.50;;;9.70;99.90;;;;;;5029231;28;20671;-78
2021/12/24 04:33:51;;;;;;;2.30;1.63;;;9.70;99.90;;;;;;5028436;28;20665;-76
2021/12/24 05:03:14;;;;;;;2.03;1.70;;;9.50;99.90;;;;;;5016380;28;20911;-77
2021/12/24 05:05:50;;;;;;;1.90;1.73;;;9.50;99.90;;;;;;5027359;28;20416;-76
2021/12/24 05:08:21;;;;;;;3.63;1.80;;;9.50;99.90;;;;;;5028313;28;20944;-75
2021/12/24 05:10:49;;;;;;;2.30;2.10;;;9.50;99.90;;;;;;5028551;28;20419;-75
2021/12/24 05:13:16;;;;;;;2.47;1.73;;;9.50;99.90;;;;;;5029164;28;20423;-77
2021/12/24 05:15:44;;;;;;;2.60;1.70;;;9.50;99.90;;;;;;5028957;28;20509;-78
2021/12/24 05:18:37;;;;;;;2.10;1.90;;;9.50;99.90;;;;;;5029688;28;20472;-79
2021/12/24 05:23:47;;;;;;;4.90;1.90;;;9.60;99.90;;;;;;5027873;28;20442;-79
2021/12/24 05:26:14;;;;;;;2.80;1.90;;;9.50;99.90;;;;;;5029103;28;20909;-78
2021/12/24 05:28:40;;;;;;;2.03;1.70;;;9.50;99.90;;;;;;5028689;28;20216;-78
2021/12/24 05:31:06;;;;;;;2.60;1.80;;;9.50;99.90;;;;;;5028217;28;20439;-80
2021/12/24 05:33:32;;;;;;;2.63;2.20;;;9.40;99.90;;;;;;5010601;28;20806;-79
2021/12/24 05:35:58;;;;;;;2.60;1.80;;;9.40;99.90;;;;;;5029911;28;20510;-80
2021/12/24 05:38:24;;;;;;;1.93;1.60;;;9.40;99.90;;;;;;5029144;28;20472;-79
2021/12/24 05:40:49;;;;;;;2.17;1.97;;;9.40;99.90;;;;;;5028166;28;20195;-79
2021/12/24 05:43:15;;;;;;;2.77;1.80;;;9.50;99.90;;;;;;5028419;28;20981;-78
2021/12/24 05:45:41;;;;;;;2.80;1.90;;;9.40;99.90;;;;;;5013468;28;20584;-81
2021/12/24 05:48:07;;;;;;;1.67;1.57;;;9.50;99.90;;;;;;5028384;28;20444;-78
2021/12/24 05:50:32;;;;;;;2.97;2.00;;;9.50;99.90;;;;;;5011070;28;20200;-80
2021/12/24 05:52:58;;;;;;;4.40;1.70;;;9.50;99.90;;;;;;5010987;28;20602;-78
2021/12/24 05:55:24;;;;;;;2.80;2.00;;;9.50;99.90;;;;;;5011792;28;20181;-77
2021/12/24 05:57:50;;;;;;;2.17;1.80;;;9.50;99.90;;;;;;5030251;28;20227;-78
2021/12/24 06:00:16;;;;;;;7.17;2.10;;;9.50;99.90;;;;;;5032596;28;20181;-78
2021/12/24 06:02:42;;;;;;;1.83;1.70;;;9.50;99.90;;;;;;5014313;28;20427;-78
2021/12/24 06:05:08;;;;;;;1.60;1.50;;;9.50;99.90;;;;;;5032316;28;20430;-78
2021/12/24 06:07:34;;;;;;;2.40;1.83;;;9.50;99.90;;;;;;5014564;28;20435;-76
2021/12/24 06:10:00;;;;;;;2.90;1.50;;;9.40;99.90;;;;;;5030786;28;20426;-78
2021/12/24 06:12:25;;;;;;;3.03;2.00;;;9.50;99.90;;;;;;5032281;28;20186;-78
2021/12/24 06:14:54;;;;;;;2.30;1.80;;;9.50;99.90;;;;;;5032422;28;20185;-78
2021/12/24 06:17:22;;;;;;;2.23;2.10;;;9.50;99.90;;;;;;5014756;28;20201;-77
2021/12/24 06:19:49;;;;;;;8.17;2.47;;;9.40;99.90;;;;;;5032297;28;20789;-79
2021/12/24 06:22:14;;;;;;;2.77;2.03;;;9.40;99.90;;;;;;5032230;28;20501;-79
2021/12/24 06:24:40;;;;;;;1.93;1.83;;;9.40;99.90;;;;;;5032569;28;20465;-78
2021/12/24 06:27:06;;;;;;;2.83;1.67;;;9.40;99.90;;;;;;5030977;28;20214;-78
2021/12/24 06:29:32;;;;;;;1.93;1.77;;;9.50;99.90;;;;;;5030662;28;20216;-78
2021/12/24 06:31:58;;;;;;;3.50;2.57;;;9.30;99.90;;;;;;5030483;28;20327;-78
2021/12/24 06:34:26;;;;;;;5.00;1.90;;;9.40;99.90;;;;;;4997398;28;20514;-79
2021/12/24 06:36:53;;;;;;;1.77;1.67;;;9.30;99.90;;;;;;5040890;28;20191;-78
2021/12/24 06:39:19;;;;;;;3.60;2.00;;;9.30;99.90;;;;;;5019682;28;20572;-82
2021/12/24 06:41:45;;;;;;;2.20;1.70;;;9.30;99.90;;;;;;5033366;28;20413;-78
2021/12/24 06:44:11;;;;;;;4.93;1.57;;;9.40;99.90;;;;;;5030331;28;20431;-79
2021/12/24 06:46:38;;;;;;;4.47;1.90;;;9.30;99.90;;;;;;5032054;28;20263;-77
2021/12/24 06:49:04;;;;;;;2.27;1.83;;;9.30;99.90;;;;;;5030683;28;20446;-77
2021/12/24 06:51:30;;;;;;;3.70;2.13;;;9.30;99.90;;;;;;5030673;28;20447;-76
2021/12/24 06:53:55;;;;;;;2.20;2.00;;;9.30;99.90;;;;;;5030670;28;20427;-76
2021/12/24 06:56:21;;;;;;;2.23;1.73;;;9.20;99.90;;;;;;5030880;28;20196;-76
2021/12/24 06:58:47;;;;;;;7.27;2.10;;;9.30;99.90;;;;;;5030718;28;20209;-76
2021/12/24 07:01:13;;;;;;;3.13;1.70;;;9.30;99.90;;;;;;5029219;28;20417;-77
2021/12/24 07:03:39;;;;;;;2.23;1.83;;;9.30;99.90;;;;;;5030623;28;20176;-76
2021/12/24 07:06:05;;;;;;;1.93;1.80;;;9.30;99.90;;;;;;5030350;28;20237;-76
2021/12/24 07:08:32;;;;;;;3.83;2.00;;;9.30;99.90;;;;;;5030048;28;20438;-78
2021/12/24 07:10:57;;;;;;;7.63;2.30;;;9.30;99.90;;;;;;5030082;28;20832;-77
2021/12/24 07:13:23;;;;;;;2.03;1.83;;;9.20;99.90;;;;;;5028986;28;20498;-76
2021/12/24 07:15:49;;;;;;;1.90;1.77;;;9.20;99.90;;;;;;5030322;28;20628;-76
2021/12/24 07:18:14;;;;;;;2.10;1.63;;;9.20;99.90;;;;;;5030124;28;20471;-75
2021/12/24 07:20:40;;;;;;;2.30;1.90;;;9.20;99.90;;;;;;5030686;28;20181;-75
2021/12/24 07:23:06;;;;;;;3.83;2.30;;;9.30;99.90;;;;;;5028643;28;20192;-76
2021/12/24 07:25:32;;;;;;;2.40;2.03;;;9.30;99.90;;;;;;5030119;28;20424;-77
2021/12/24 07:27:58;;;;;;;2.83;1.90;;;9.30;99.90;;;;;;5030127;28;20207;-76
2021/12/24 07:30:24;;;;;;;5.47;2.23;;;9.30;99.90;;;;;;5028672;28;20510;-75
2021/12/24 07:32:50;;;;;;;1.90;1.80;;;9.30;99.90;;;;;;5028611;28;20463;-77
2021/12/24 07:35:16;;;;;;;3.07;1.97;;;9.30;99.90;;;;;;5030064;28;20654;-76
2021/12/24 07:37:42;;;;;;;37.00;15.10;;;9.30;99.90;;;;;;5029862;28;20875;-76
2021/12/24 07:40:09;;;;;;;3.53;2.63;;;9.30;99.90;;;;;;5012403;28;20426;-77
2021/12/24 07:42:36;;;;;;;3.10;2.10;;;9.30;99.90;;;;;;5029873;28;20629;-76
2021/12/24 07:45:04;;;;;;;1.80;1.70;;;9.30;99.90;;;;;;5029736;28;20416;-78
2021/12/24 07:47:39;;;;;;;1.67;1.57;;;9.30;99.90;;;;;;5028203;28;20455;-77
2021/12/24 07:51:54;;;;;;;3.50;2.20;;;9.30;99.90;;;;;;5028046;28;20992;-76
2021/12/24 07:53:02;;;;;;;5.17;2.17;;;9.30;99.90;;;;;;5029851;28;20912;-76
2021/12/24 07:55:28;;;;;;;2.10;2.00;;;9.30;99.90;;;;;;5028660;28;21205;-76
2021/12/24 07:57:54;;;;;;;1.70;1.60;;;9.30;99.90;;;;;;5029731;28;20561;-76
2021/12/24 08:00:22;;;;;;;3.03;1.90;;;9.30;99.90;;;;;;5029858;28;20433;-76
2021/12/24 08:02:49;;;;;;;2.30;1.47;;;9.30;99.90;;;;;;5029915;28;20181;-76
2021/12/24 08:05:15;;;;;;;2.40;2.20;;;9.30;99.90;;;;;;5030219;28;20497;-76
2021/12/24 08:07:41;;;;;;;6.17;1.87;;;9.30;99.90;;;;;;5030422;28;20446;-76
2021/12/24 08:10:07;;;;;;;2.80;2.30;;;9.30;99.90;;;;;;5029639;28;20423;-76
2021/12/24 08:12:33;;;;;;;3.73;2.37;;;9.30;99.90;;;;;;5029637;28;20419;-76
2021/12/24 08:14:58;;;;;;;2.73;2.53;;;9.30;99.90;;;;;;5029615;28;20790;-75
2021/12/24 08:17:24;;;;;;;1.70;1.60;;;9.30;99.90;;;;;;5029588;28;20586;-77
2021/12/24 08:19:50;;;;;;;2.30;2.10;;;9.30;99.90;;;;;;5029514;28;20349;-76
2021/12/24 08:22:15;;;;;;;3.10;2.50;;;9.20;99.90;;;;;;5010946;28;20230;-76
2021/12/24 08:24:41;;;;;;;1.90;1.80;;;9.20;99.90;;;;;;5029607;28;20179;-76
2021/12/24 08:27:10;;;;;;;2.70;2.10;;;9.20;99.90;;;;;;5028140;28;20283;-76
2021/12/24 08:29:37;;;;;;;2.10;1.90;;;9.20;99.90;;;;;;5012236;28;20199;-76
2021/12/24 08:32:04;;;;;;;1.90;1.63;;;9.20;99.90;;;;;;5028036;28;20455;-77
2021/12/24 08:34:30;;;;;;;3.33;2.10;;;9.20;99.90;;;;;;5029529;28;20521;-76
2021/12/24 08:36:56;;;;;;;3.80;1.90;;;9.20;99.90;;;;;;5029359;28;20440;-76
2021/12/24 08:39:22;;;;;;;2.37;2.17;;;9.30;99.90;;;;;;5029469;28;20454;-77
2021/12/24 08:41:52;;;;;;;2.57;2.37;;;9.20;99.90;;;;;;5028117;28;20185;-77
2021/12/24 08:44:18;;;;;;;5.73;3.30;;;9.10;99.90;;;;;;5029968;28;20444;-77
2021/12/24 08:46:44;;;;;;;2.20;2.00;;;9.20;99.90;;;;;;5029535;28;20421;-75
2021/12/24 08:49:10;;;;;;;3.07;1.90;;;9.20;99.90;;;;;;5029672;28;20434;-76
2021/12/24 08:51:35;;;;;;;5.40;2.20;;;9.30;99.90;;;;;;5029660;28;20197;-76
2021/12/24 08:54:01;;;;;;;1.80;1.70;;;9.30;99.90;;;;;;5029961;28;20195;-76
2021/12/24 08:56:27;;;;;;;3.07;2.47;;;9.30;99.90;;;;;;5029608;28;20180;-77
2021/12/24 08:58:53;;;;;;;4.27;2.23;;;9.30;99.90;;;;;;5028049;28;20223;-77
2021/12/24 09:01:18;;;;;;;1.93;1.60;;;9.30;99.90;;;;;;5028173;28;20207;-76
2021/12/24 09:03:44;;;;;;;5.43;2.30;;;9.30;99.90;;;;;;5029485;28;20407;-75
2021/12/24 09:06:10;;;;;;;4.00;2.70;;;9.30;99.90;;;;;;5029639;28;20184;-76
2021/12/24 09:08:35;;;;;;;2.83;2.20;;;9.30;99.90;;;;;;5029078;28;20238;-77
2021/12/24 09:11:03;;;;;;;6.50;2.20;;;9.40;99.90;;;;;;5029355;28;20240;-76
2021/12/24 09:13:29;;;;;;;2.43;1.80;;;9.40;99.90;;;;;;5029069;28;20178;-76
2021/12/24 09:15:55;;;;;;;2.80;1.80;;;9.40;99.90;;;;;;5027501;28;20416;-77
2021/12/24 09:18:21;;;;;;;4.33;2.03;;;9.40;99.90;;;;;;5028735;28;20467;-76
2021/12/24 09:20:47;;;;;;;3.53;1.40;;;9.40;99.90;;;;;;5028862;28;20407;-76
2021/12/24 09:23:13;;;;;;;3.57;1.93;;;9.40;99.90;;;;;;5028811;28;20180;-76
2021/12/24 09:25:40;;;;;;;2.27;1.97;;;9.50;99.90;;;;;;4994628;28;20425;-76
2021/12/24 09:28:07;;;;;;;3.77;2.10;;;9.50;99.90;;;;;;5028565;28;20443;-77
2021/12/24 09:30:34;;;;;;;2.13;1.83;;;9.40;99.90;;;;;;5027198;28;20419;-75
2021/12/24 09:33:00;;;;;;;2.93;1.87;;;9.40;99.90;;;;;;5030539;28;20427;-76
2021/12/24 09:35:26;;;;;;;2.40;1.70;;;9.30;99.90;;;;;;5032488;28;20420;-77
2021/12/24 09:37:54;;;;;;;2.40;1.97;;;9.40;99.90;;;;;;5032414;28;20490;-76
2021/12/24 09:40:20;;;;;;;1.73;1.63;;;9.40;99.90;;;;;;5032493;28;20452;-76
2021/12/24 09:42:46;;;;;;;1.93;1.33;;;9.30;99.90;;;;;;5032737;28;20451;-77
2021/12/24 09:45:13;;;;;;;6.33;3.80;;;9.30;99.90;;;;;;5015111;28;21266;-77
2021/12/24 09:47:39;;;;;;;4.70;2.30;;;9.30;99.90;;;;;;5014695;28;20487;-76
2021/12/24 09:50:07;;;;;;;2.03;1.80;;;9.30;99.90;;;;;;5032631;28;20440;-76
2021/12/24 09:52:37;;;;;;;3.63;1.80;;;9.30;99.90;;;;;;5031492;28;20416;-76
2021/12/24 09:55:11;;;;;;;1.67;1.57;;;9.30;99.90;;;;;;5032789;28;20494;-76
2021/12/24 09:57:37;;;;;;;2.40;2.00;;;9.30;99.90;;;;;;5032934;28;20478;-76
2021/12/24 10:00:05;;;;;;;3.43;1.77;;;9.20;99.90;;;;;;5032859;28;20935;-76
2021/12/24 10:02:45;;;;;;;2.07;1.50;;;9.20;99.90;;;;;;5031352;28;20185;-76
2021/12/24 10:05:39;;;;;;;2.97;1.47;;;9.10;99.90;;;;;;5032783;28;20411;-76
2021/12/24 10:08:14;;;;;;;1.47;1.37;;;9.10;99.90;;;;;;5031411;28;20477;-75
2021/12/24 10:10:43;;;;;;;2.27;1.50;;;9.00;99.90;;;;;;5031840;28;20418;-76
2021/12/24 10:13:43;;;;;;;2.17;2.07;;;8.90;99.90;;;;;;5033335;28;20478;-78
2021/12/24 10:16:16;;;;;;;6.33;1.83;;;8.80;99.90;;;;;;5033406;28;20417;-75
2021/12/24 10:18:45;;;;;;;2.27;1.80;;;8.80;99.90;;;;;;5031880;28;20467;-77
2021/12/24 10:21:16;;;;;;;3.27;1.37;;;8.80;99.90;;;;;;5032923;28;20790;-77
2021/12/24 10:23:51;;;;;;;1.40;1.30;;;8.80;99.90;;;;;;5032867;28;20431;-76
2021/12/24 10:26:33;;;;;;;2.07;1.50;;;8.70;99.90;;;;;;5031457;28;20422;-77
2021/12/24 10:29:04;;;;;;;3.93;1.40;;;8.70;99.90;;;;;;5032679;28;20502;-75
2021/12/24 10:31:53;;;;;;;1.87;1.17;;;8.70;99.90;;;;;;5032794;28;20413;-76
2021/12/24 10:34:22;;;;;;;4.27;1.00;;;8.70;99.90;;;;;;5032890;28;20506;-76
2021/12/24 10:36:58;;;;;;;1.17;1.03;;;8.60;99.90;;;;;;5032430;28;20798;-76
2021/12/24 10:39:26;;;;;;;1.33;1.23;;;8.70;99.90;;;;;;5031183;28;20462;-77
2021/12/24 10:41:54;;;;;;;1.07;0.80;;;8.70;99.90;;;;;;5032434;28;20499;-76
2021/12/24 10:44:26;;;;;;;2.17;0.90;;;8.70;99.90;;;;;;5030187;28;20408;-75
2021/12/24 10:47:03;;;;;;;1.47;0.80;;;8.70;99.90;;;;;;5032110;28;20403;-74
2021/12/24 10:52:31;;;;;;;1.03;0.87;;;8.70;99.90;;;;;;5032162;28;20430;-74
2021/12/24 10:55:04;;;;;;;0.97;0.93;;;8.70;99.90;;;;;;5017863;28;20522;-77
2021/12/24 10:57:32;;;;;;;2.23;1.20;;;8.70;99.90;;;;;;5032465;28;20439;-75
2021/12/24 11:00:02;;;;;;;1.37;1.27;;;8.70;99.90;;;;;;5033532;28;20955;-77
2021/12/24 11:02:34;;;;;;;2.93;0.90;;;8.60;99.90;;;;;;5032729;28;20418;-76
2021/12/24 11:05:00;;;;;;;2.13;1.10;;;8.60;99.90;;;;;;5031176;28;20821;-76
2021/12/24 11:07:42;;;;;;;1.00;0.90;;;8.50;99.90;;;;;;5031961;28;20469;-76
2021/12/24 11:10:19;;;;;;;0.80;0.80;;;8.50;99.90;;;;;;5031423;28;20399;-75
2021/12/24 11:12:57;;;;;;;1.77;1.00;;;8.60;99.90;;;;;;5031602;28;20879;-75
2021/12/24 11:15:38;;;;;;;1.00;1.00;;;8.60;99.90;;;;;;5030067;28;20430;-78
2021/12/24 11:18:22;;;;;;;0.90;0.90;;;8.60;99.90;;;;;;5031922;28;20471;-77
2021/12/24 11:20:55;;;;;;;2.73;2.53;;;8.60;99.90;;;;;;5032223;28;20403;-78
2021/12/24 11:23:23;;;;;;;1.73;1.00;;;8.60;99.90;;;;;;5031990;28;20426;-77
2021/12/24 11:25:57;;;;;;;6.83;1.07;;;8.60;99.90;;;;;;5032225;28;20498;-76
2021/12/24 11:28:25;;;;;;;0.93;0.83;;;8.60;99.90;;;;;;5032297;28;20442;-77
2021/12/24 11:30:56;;;;;;;1.00;0.70;;;8.60;99.90;;;;;;5032257;28;20423;-77
2021/12/24 11:33:25;;;;;;;1.03;0.60;;;8.60;99.90;;;;;;5030651;28;20430;-76
2021/12/24 11:35:52;;;;;;;1.30;0.80;;;8.60;99.90;;;;;;5032184;28;20425;-77
2021/12/24 11:38:22;;;;;;;0.87;0.80;;;8.60;99.90;;;;;;5031951;28;20496;-77
2021/12/24 11:40:50;;;;;;;0.80;0.70;;;8.60;99.90;;;;;;5032232;28;20868;-78
2021/12/24 11:43:18;;;;;;;1.90;0.80;;;8.60;99.90;;;;;;5031960;28;20455;-77
2021/12/24 11:45:44;;;;;;;0.80;0.70;;;8.60;99.90;;;;;;5030609;28;20423;-76
2021/12/24 11:48:10;;;;;;;2.60;0.80;;;8.60;99.90;;;;;;5031508;28;20462;-76
2021/12/24 11:50:36;;;;;;;0.70;0.50;;;8.60;99.90;;;;;;5030352;28;20511;-75
2021/12/24 11:53:07;;;;;;;0.80;0.80;;;8.60;99.90;;;;;;5029995;28;20276;-75
2021/12/24 11:55:42;;;;;;;1.20;0.70;;;8.60;99.90;;;;;;5029868;28;20415;-78
2021/12/24 11:58:14;;;;;;;0.77;0.70;;;8.70;99.90;;;;;;5030622;28;21385;-76
2021/12/24 12:00:43;;;;;;;1.20;0.90;;;8.70;99.90;;;;;;5029666;28;20415;-76
2021/12/24 12:03:28;;;;;;;1.53;1.23;;;8.70;99.90;;;;;;5029643;28;20449;-75
2021/12/24 12:05:54;;;;;;;1.53;0.80;;;8.70;99.90;;;;;;5031065;28;20402;-77
2021/12/24 12:08:26;;;;;;;0.80;0.63;;;8.70;99.90;;;;;;5031422;28;20443;-77
2021/12/24 12:11:00;;;;;;;0.70;0.60;;;8.70;99.90;;;;;;5030181;28;20784;-77
2021/12/24 12:13:59;;;;;;;0.73;0.60;;;8.80;99.90;;;;;;5030945;28;20420;-77
2021/12/24 12:16:27;;;;;;;0.80;0.50;;;8.80;99.90;;;;;;5030769;28;20491;-77
2021/12/24 12:19:22;;;;;;;0.80;0.70;;;8.80;99.90;;;;;;5030438;28;20557;-77
2021/12/24 12:22:43;;;;;;;0.73;0.60;;;8.80;99.90;;;;;;5029451;28;20425;-77
2021/12/24 12:25:13;;;;;;;0.70;0.50;;;8.80;99.90;;;;;;5029661;28;20402;-76
2021/12/24 12:27:53;;;;;;;2.03;0.60;;;8.80;99.90;;;;;;5029274;28;20519;-77
2021/12/24 12:30:46;;;;;;;0.70;0.60;;;8.80;99.90;;;;;;5029670;28;20877;-78
2021/12/24 12:33:13;;;;;;;0.80;0.60;;;8.80;99.90;;;;;;5028680;28;20456;-78
2021/12/24 12:35:50;;;;;;;1.43;0.70;;;8.80;99.90;;;;;;5028102;28;20427;-78
2021/12/24 12:38:39;;;;;;;0.83;0.70;;;8.80;99.90;;;;;;5027814;28;20916;-78
2021/12/24 12:41:31;;;;;;;1.57;0.70;;;8.80;99.90;;;;;;5027959;28;20485;-78
2021/12/24 12:43:58;;;;;;;0.97;0.70;;;8.80;99.90;;;;;;5029347;28;20800;-78
2021/12/24 12:46:33;;;;;;;2.70;1.27;;;8.80;99.90;;;;;;5029317;28;20411;-78
2021/12/24 12:49:02;;;;;;;1.87;0.60;;;8.80;99.90;;;;;;5028842;28;20447;-78
2021/12/24 12:51:50;;;;;;;2.33;1.10;;;8.80;99.90;;;;;;5028565;28;20439;-77
2021/12/24 12:54:39;;;;;;;1.20;0.80;;;8.80;99.90;;;;;;5028993;28;20431;-77
2021/12/24 12:57:12;;;;;;;1.17;0.77;;;8.80;99.90;;;;;;5028017;28;20453;-77
2021/12/24 12:59:39;;;;;;;1.23;0.73;;;8.80;99.90;;;;;;5027820;28;20523;-77
2021/12/24 13:02:05;;;;;;;1.90;0.83;;;8.80;99.90;;;;;;5028785;28;20428;-80
2021/12/24 13:04:31;;;;;;;1.20;1.10;;;8.90;99.90;;;;;;5029060;28;20419;-78
2021/12/24 13:06:58;;;;;;;0.90;0.63;;;8.80;99.90;;;;;;5029291;28;20207;-77
2021/12/24 13:09:32;;;;;;;2.70;0.70;;;8.80;99.90;;;;;;5015390;28;20424;-84
2021/12/24 13:11:58;;;;;;;2.60;0.83;;;8.90;99.90;;;;;;5012764;28;20426;-77
2021/12/24 13:14:28;;;;;;;1.10;0.80;;;8.90;99.90;;;;;;5031205;28;20962;-80
2021/12/24 13:22:30;;;;;;;2.20;1.00;;;8.90;99.90;;;;;;5031828;28;20463;-78
2021/12/24 13:25:10;;;;;;;2.67;0.80;;;8.90;99.90;;;;;;5029070;28;20423;-78
2021/12/24 13:27:41;;;;;;;1.10;0.87;;;9.00;99.90;;;;;;5030046;28;20443;-78
2021/12/24 13:30:10;;;;;;;0.93;0.93;;;8.90;99.90;;;;;;5028052;28;20439;-77
2021/12/24 13:32:43;;;;;;;0.70;0.60;;;9.00;99.90;;;;;;5028295;28;20481;-79
2021/12/24 13:35:09;;;;;;;0.97;0.60;;;9.00;99.90;;;;;;5032026;28;20928;-77
2021/12/24 13:37:35;;;;;;;1.10;1.00;;;9.00;99.90;;;;;;5033888;28;20901;-78
2021/12/24 13:40:06;;;;;;;2.93;1.13;;;9.10;99.90;;;;;;5031191;28;20822;-77
2021/12/24 13:42:44;;;;;;;9.77;7.17;;;9.10;99.90;;;;;;5031495;28;20435;-80
2021/12/24 13:45:11;;;;;;;1.23;1.13;;;9.10;99.90;;;;;;5028328;28;20497;-79
2021/12/24 13:47:52;;;;;;;1.50;1.40;;;9.20;99.90;;;;;;5030239;28;20614;-77
2021/12/24 13:55:36;;;;;;;1.33;1.00;;;9.20;99.90;;;;;;5028729;28;20424;-78
2021/12/24 13:58:05;;;;;;;1.10;0.70;;;9.30;99.90;;;;;;5029207;28;20844;-77
2021/12/24 14:00:35;;;;;;;2.90;0.80;;;9.30;99.90;;;;;;5029884;28;20427;-78
2021/12/24 14:03:04;;;;;;;0.93;0.77;;;9.30;99.90;;;;;;5028002;28;20514;-77
2021/12/24 14:05:30;;;;;;;16.50;7.50;;;9.30;99.90;;;;;;5027797;28;20451;-78
2021/12/24 14:08:12;;;;;;;4.50;4.20;;;9.30;99.90;;;;;;5028201;28;20462;-77
2021/12/24 14:10:40;;;;;;;2.00;0.70;;;9.30;99.90;;;;;;5028967;28;20219;-76
2021/12/24 14:13:18;;;;;;;1.30;1.00;;;9.30;99.90;;;;;;5011897;28;20457;-76
2021/12/24 14:16:08;;;;;;;4.63;0.90;;;9.30;99.90;;;;;;5029393;28;20443;-77
2021/12/24 14:18:52;;;;;;;1.40;1.00;;;9.30;99.90;;;;;;5031268;28;20554;-78
2021/12/24 14:24:25;;;;;;;41.27;12.03;;;9.30;99.90;;;;;;5032787;28;20408;-77
2021/12/24 14:27:00;;;;;;;1.33;1.00;;;9.20;99.90;;;;;;5034023;28;20403;-78
2021/12/24 14:29:33;;;;;;;0.90;0.80;;;9.20;99.90;;;;;;5033199;28;20427;-78
2021/12/24 14:32:04;;;;;;;0.80;0.80;;;9.20;99.90;;;;;;5032581;28;20423;-78
2021/12/24 14:34:31;;;;;;;1.20;0.80;;;9.20;99.90;;;;;;5033435;28;20430;-78
2021/12/24 14:37:06;;;;;;;25.20;10.47;;;9.10;99.90;;;;;;5032896;28;20449;-79
2021/12/24 14:39:42;;;;;;;7.27;3.60;;;9.10;99.90;;;;;;5032676;28;20822;-78
2021/12/24 14:42:28;;;;;;;6.40;2.37;;;9.10;99.90;;;;;;5032761;28;20425;-79
2021/12/24 14:45:23;;;;;;;0.77;0.63;;;9.00;99.90;;;;;;5031863;28;20427;-78
2021/12/24 14:48:21;;;;;;;1.43;1.13;;;9.00;99.90;;;;;;5028947;28;20446;-78
2021/12/24 14:50:50;;;;;;;1.17;0.60;;;9.00;99.90;;;;;;5031704;28;20545;-78
2021/12/24 14:53:18;;;;;;;0.70;0.70;;;9.00;99.90;;;;;;5033948;28;20560;-78
2021/12/24 14:55:58;;;;;;;1.30;0.70;;;9.00;99.90;;;;;;5034551;28;20472;-79
2021/12/24 14:58:41;;;;;;;1.30;0.77;;;8.90;99.90;;;;;;5033311;28;20497;-78
2021/12/24 15:01:06;;;;;;;1.00;0.90;;;9.00;99.90;;;;;;5034030;28;20426;-78